sensor_id;sensor_type;location;lat;lon;timestamp;temperature;humidity
34646;DHT22;20857;47.808;12.482;2023-05-02T00:00:31;10.30;99.90
34646;DHT22;20857;47.808;12.482;2023-05-02T00:02:57;10.00;99.90
34646;DHT22;20857;47.808;12.482;2023-05-02T00:05:23;9.90;99.90
34646;DHT22;20857;47.808;12.482;2023-05-02T00:07:49;9.90;99.90
34646;DHT22;20857;47.808;12.482;2023-05-02T00:10:15;10.00;99.90
34646;DHT22;20857;47.808;12.482;2023-05-02T00:12:40;9.90;99.90
34646;DHT22;20857;47.808;12.482;2023-05-02T00:15:06;9.90;99.90
34646;DHT22;20857;47.808;12.482;2023-05-02T00:17:32;9.90;99.90
34646;DHT22;20857;47.808;12.482;2023-05-02T00:19:57;9.90;99.90
34646;DHT22;20857;47.808;12.482;2023-05-02T00:22:23;9.90;99.90
34646;DHT22;20857;47.808;12.482;2023-05-02T00:24:48;9.90;99.90
34646;DHT22;20857;47.808;12.482;2023-05-02T00:27:14;9.80;99.90
34646;DHT22;20857;47.808;12.482;2023-05-02T00:29:39;9.80;99.90
34646;DHT22;20857;47.808;12.482;2023-05-02T00:32:05;9.80;99.90
34646;DHT22;20857;47.808;12.482;2023-05-02T00:34:31;9.80;99.90
34646;DHT22;20857;47.808;12.482;2023-05-02T00:36:57;9.80;99.90
34646;DHT22;20857;47.808;12.482;2023-05-02T00:39:22;9.70;99.90
34646;DHT22;20857;47.808;12.482;2023-05-02T00:41:48;10.00;99.90
34646;DHT22;20857;47.808;12.482;2023-05-02T00:44:14;9.70;99.90
34646;DHT22;20857;47.808;12.482;2023-05-02T00:46:39;10.70;99.90
34646;DHT22;20857;47.808;12.482;2023-05-02T00:49:05;9.70;99.90
34646;DHT22;20857;47.808;12.482;2023-05-02T00:51:34;9.70;99.90
34646;DHT22;20857;47.808;12.482;2023-05-02T00:53:59;9.70;99.90
34646;DHT22;20857;47.808;12.482;2023-05-02T00:56:25;9.90;99.90
34646;DHT22;20857;47.808;12.482;2023-05-02T00:58:51;9.70;99.90
34646;DHT22;20857;47.808;12.482;2023-05-02T01:11:23;9.60;99.90
34646;DHT22;20857;47.808;12.482;2023-05-02T01:13:52;9.70;99.90
34646;DHT22;20857;47.808;12.482;2023-05-02T01:16:19;9.70;99.90
34646;DHT22;20857;47.808;12.482;2023-05-02T01:18:45;9.70;99.90
34646;DHT22;20857;47.808;12.482;2023-05-02T01:21:12;9.60;99.90
34646;DHT22;20857;47.808;12.482;2023-05-02T01:23:51;9.90;99.90
34646;DHT22;20857;47.808;12.482;2023-05-02T01:28:57;11.20;99.90
34646;DHT22;20857;47.808;12.482;2023-05-02T01:31:30;9.70;99.90
34646;DHT22;20857;47.808;12.482;2023-05-02T01:33:57;9.70;99.90
34646;DHT22;20857;47.808;12.482;2023-05-02T01:36:24;9.70;99.90
34646;DHT22;20857;47.808;12.482;2023-05-02T01:38:51;9.80;99.90
34646;DHT22;20857;47.808;12.482;2023-05-02T01:41:17;9.70;99.90
34646;DHT22;20857;47.808;12.482;2023-05-02T01:43:44;11.00;99.90
34646;DHT22;20857;47.808;12.482;2023-05-02T01:46:10;11.30;99.90
34646;DHT22;20857;47.808;12.482;2023-05-02T01:48:37;9.70;99.90
34646;DHT22;20857;47.808;12.482;2023-05-02T01:51:03;9.70;99.90
34646;DHT22;20857;47.808;12.482;2023-05-02T01:53:29;9.70;99.90
34646;DHT22;20857;47.808;12.482;2023-05-02T01:55:57;9.90;99.90
34646;DHT22;20857;47.808;12.482;2023-05-02T01:58:24;9.80;99.90
34646;DHT22;20857;47.808;12.482;2023-05-02T02:00:51;9.80;99.90
34646;DHT22;20857;47.808;12.482;2023-05-02T02:03:17;11.50;99.90
34646;DHT22;20857;47.808;12.482;2023-05-02T02:05:42;9.80;99.90
34646;DHT22;20857;47.808;12.482;2023-05-02T02:08:09;10.10;99.90
34646;DHT22;20857;47.808;12.482;2023-05-02T02:10:36;9.80;99.90
34646;DHT22;20857;47.808;12.482;2023-05-02T02:13:04;10.40;99.90
34646;DHT22;20857;47.808;12.482;2023-05-02T02:15:33;9.90;99.90
34646;DHT22;20857;47.808;12.482;2023-05-02T02:20:24;10.10;99.90
34646;DHT22;20857;47.808;12.482;2023-05-02T02:22:50;9.90;99.90
34646;DHT22;20857;47.808;12.482;2023-05-02T02:25:17;10.90;99.90
34646;DHT22;20857;47.808;12.482;2023-05-02T02:27:43;9.80;99.90
34646;DHT22;20857;47.808;12.482;2023-05-02T02:30:09;9.80;99.90
34646;DHT22;20857;47.808;12.482;2023-05-02T02:32:34;9.80;99.90
34646;DHT22;20857;47.808;12.482;2023-05-02T02:35:00;9.80;99.90
34646;DHT22;20857;47.808;12.482;2023-05-02T02:38:01;10.00;99.90
34646;DHT22;20857;47.808;12.482;2023-05-02T02:40:40;9.80;99.90
34646;DHT22;20857;47.808;12.482;2023-05-02T02:43:08;9.80;99.90
34646;DHT22;20857;47.808;12.482;2023-05-02T02:53:38;9.80;99.90
34646;DHT22;20857;47.808;12.482;2023-05-02T02:56:15;9.80;99.90
34646;DHT22;20857;47.808;12.482;2023-05-02T02:58:54;9.70;99.90
34646;DHT22;20857;47.808;12.482;2023-05-02T03:01:21;9.70;99.90
34646;DHT22;20857;47.808;12.482;2023-05-02T03:03:48;9.80;99.90
34646;DHT22;20857;47.808;12.482;2023-05-02T03:06:16;9.80;99.90
34646;DHT22;20857;47.808;12.482;2023-05-02T03:08:42;9.80;99.90
34646;DHT22;20857;47.808;12.482;2023-05-02T03:11:08;10.10;99.90
34646;DHT22;20857;47.808;12.482;2023-05-02T03:13:34;9.80;99.90
34646;DHT22;20857;47.808;12.482;2023-05-02T03:18:43;9.70;99.90
34646;DHT22;20857;47.808;12.482;2023-05-02T03:21:09;9.70;99.90
34646;DHT22;20857;47.808;12.482;2023-05-02T03:23:34;9.70;99.90
34646;DHT22;20857;47.808;12.482;2023-05-02T03:26:00;9.70;99.90
34646;DHT22;20857;47.808;12.482;2023-05-02T03:28:27;9.70;99.90
34646;DHT22;20857;47.808;12.482;2023-05-02T03:30:52;9.80;99.90
34646;DHT22;20857;47.808;12.482;2023-05-02T03:33:18;9.60;99.90
34646;DHT22;20857;47.808;12.482;2023-05-02T03:35:44;9.60;99.90
34646;DHT22;20857;47.808;12.482;2023-05-02T03:38:10;9.60;99.90
34646;DHT22;20857;47.808;12.482;2023-05-02T03:40:35;9.70;99.90
34646;DHT22;20857;47.808;12.482;2023-05-02T03:43:01;9.60;99.90
34646;DHT22;20857;47.808;12.482;2023-05-02T03:45:26;10.00;99.90
34646;DHT22;20857;47.808;12.482;2023-05-02T03:47:52;9.70;99.90
34646;DHT22;20857;47.808;12.482;2023-05-02T03:50:17;9.70;99.90
34646;DHT22;20857;47.808;12.482;2023-05-02T03:52:43;10.30;99.90
34646;DHT22;20857;47.808;12.482;2023-05-02T03:55:08;9.70;99.90
34646;DHT22;20857;47.808;12.482;2023-05-02T03:57:34;9.70;99.90
34646;DHT22;20857;47.808;12.482;2023-05-02T04:00:00;10.50;99.90
34646;DHT22;20857;47.808;12.482;2023-05-02T04:02:25;9.70;99.90
34646;DHT22;20857;47.808;12.482;2023-05-02T04:04:51;9.70;99.90
34646;DHT22;20857;47.808;12.482;2023-05-02T04:07:16;9.70;99.90
34646;DHT22;20857;47.808;12.482;2023-05-02T04:09:45;9.70;99.90
34646;DHT22;20857;47.808;12.482;2023-05-02T04:12:11;9.90;99.90
34646;DHT22;20857;47.808;12.482;2023-05-02T04:14:36;9.70;99.90
34646;DHT22;20857;47.808;12.482;2023-05-02T04:17:02;9.70;99.90
34646;DHT22;20857;47.808;12.482;2023-05-02T04:19:28;9.70;99.90
34646;DHT22;20857;47.808;12.482;2023-05-02T04:21:53;9.70;99.90
34646;DHT22;20857;47.808;12.482;2023-05-02T04:24:19;9.80;99.90
34646;DHT22;20857;47.808;12.482;2023-05-02T04:26:44;9.80;99.90
34646;DHT22;20857;47.808;12.482;2023-05-02T04:29:11;9.80;99.90
34646;DHT22;20857;47.808;12.482;2023-05-02T04:31:37;9.80;99.90
34646;DHT22;20857;47.808;12.482;2023-05-02T04:34:03;9.80;99.90
34646;DHT22;20857;47.808;12.482;2023-05-02T04:36:28;9.80;99.90
34646;DHT22;20857;47.808;12.482;2023-05-02T04:38:54;9.70;99.90
34646;DHT22;20857;47.808;12.482;2023-05-02T04:41:19;9.80;99.90
34646;DHT22;20857;47.808;12.482;2023-05-02T04:43:45;9.90;99.90
34646;DHT22;20857;47.808;12.482;2023-05-02T04:46:11;9.80;99.90
34646;DHT22;20857;47.808;12.482;2023-05-02T04:48:36;9.90;99.90
34646;DHT22;20857;47.808;12.482;2023-05-02T04:51:06;10.00;99.90
34646;DHT22;20857;47.808;12.482;2023-05-02T04:53:32;10.30;99.90
34646;DHT22;20857;47.808;12.482;2023-05-02T04:55:57;10.00;99.90
34646;DHT22;20857;47.808;12.482;2023-05-02T04:58:23;10.00;99.90
34646;DHT22;20857;47.808;12.482;2023-05-02T05:00:48;9.90;99.90
34646;DHT22;20857;47.808;12.482;2023-05-02T05:03:14;9.90;99.90
34646;DHT22;20857;47.808;12.482;2023-05-02T05:05:39;9.80;99.90
34646;DHT22;20857;47.808;12.482;2023-05-02T05:08:05;9.90;99.90
34646;DHT22;20857;47.808;12.482;2023-05-02T05:10:30;10.00;99.90
34646;DHT22;20857;47.808;12.482;2023-05-02T05:12:56;10.00;99.90
34646;DHT22;20857;47.808;12.482;2023-05-02T05:15:21;9.90;99.90
34646;DHT22;20857;47.808;12.482;2023-05-02T05:17:49;10.00;99.90
34646;DHT22;20857;47.808;12.482;2023-05-02T05:20:15;10.00;99.90
34646;DHT22;20857;47.808;12.482;2023-05-02T05:22:40;9.90;99.90
34646;DHT22;20857;47.808;12.482;2023-05-02T05:25:07;10.00;99.90
34646;DHT22;20857;47.808;12.482;2023-05-02T05:27:33;10.00;99.90
34646;DHT22;20857;47.808;12.482;2023-05-02T05:29:58;10.00;99.90
34646;DHT22;20857;47.808;12.482;2023-05-02T05:32:24;10.00;99.90
34646;DHT22;20857;47.808;12.482;2023-05-02T05:34:50;10.00;99.90
34646;DHT22;20857;47.808;12.482;2023-05-02T05:37:18;10.00;99.90
34646;DHT22;20857;47.808;12.482;2023-05-02T05:39:44;10.00;99.90
34646;DHT22;20857;47.808;12.482;2023-05-02T05:42:10;10.00;99.90
34646;DHT22;20857;47.808;12.482;2023-05-02T05:44:36;10.10;99.90
34646;DHT22;20857;47.808;12.482;2023-05-02T05:47:02;10.00;99.90
34646;DHT22;20857;47.808;12.482;2023-05-02T05:49:27;10.10;99.90
34646;DHT22;20857;47.808;12.482;2023-05-02T05:51:53;11.00;99.90
34646;DHT22;20857;47.808;12.482;2023-05-02T05:54:18;10.10;99.90
34646;DHT22;20857;47.808;12.482;2023-05-02T05:56:44;10.10;99.90
34646;DHT22;20857;47.808;12.482;2023-05-02T05:59:10;10.10;99.90
34646;DHT22;20857;47.808;12.482;2023-05-02T06:01:35;10.30;99.90
34646;DHT22;20857;47.808;12.482;2023-05-02T06:04:01;10.40;99.90
34646;DHT22;20857;47.808;12.482;2023-05-02T06:06:29;10.40;99.90
34646;DHT22;20857;47.808;12.482;2023-05-02T06:08:56;10.40;99.90
34646;DHT22;20857;47.808;12.482;2023-05-02T06:11:22;10.40;99.90
34646;DHT22;20857;47.808;12.482;2023-05-02T06:13:49;10.50;99.90
34646;DHT22;20857;47.808;12.482;2023-05-02T06:16:15;10.50;99.90
34646;DHT22;20857;47.808;12.482;2023-05-02T06:18:42;10.60;99.90
34646;DHT22;20857;47.808;12.482;2023-05-02T06:21:08;10.60;99.90
34646;DHT22;20857;47.808;12.482;2023-05-02T06:23:33;10.50;99.90
34646;DHT22;20857;47.808;12.482;2023-05-02T06:26:01;10.50;99.90
34646;DHT22;20857;47.808;12.482;2023-05-02T06:28:27;10.50;99.90
34646;DHT22;20857;47.808;12.482;2023-05-02T06:31:10;10.50;99.90
34646;DHT22;20857;47.808;12.482;2023-05-02T06:33:36;10.70;99.90
34646;DHT22;20857;47.808;12.482;2023-05-02T06:36:01;10.60;99.90
34646;DHT22;20857;47.808;12.482;2023-05-02T06:38:27;10.60;99.90
34646;DHT22;20857;47.808;12.482;2023-05-02T06:40:52;10.50;99.90
34646;DHT22;20857;47.808;12.482;2023-05-02T06:43:18;10.70;99.90
34646;DHT22;20857;47.808;12.482;2023-05-02T06:45:44;10.60;99.90
34646;DHT22;20857;47.808;12.482;2023-05-02T06:48:09;10.90;99.90
34646;DHT22;20857;47.808;12.482;2023-05-02T06:50:35;11.10;99.90
34646;DHT22;20857;47.808;12.482;2023-05-02T06:53:01;11.30;99.90
34646;DHT22;20857;47.808;12.482;2023-05-02T06:55:26;11.50;99.90
34646;DHT22;20857;47.808;12.482;2023-05-02T06:57:53;11.50;99.90
34646;DHT22;20857;47.808;12.482;2023-05-02T07:00:18;11.50;99.90
34646;DHT22;20857;47.808;12.482;2023-05-02T07:02:44;11.50;99.90
34646;DHT22;20857;47.808;12.482;2023-05-02T07:05:10;11.60;99.90
34646;DHT22;20857;47.808;12.482;2023-05-02T07:07:35;11.70;99.90
34646;DHT22;20857;47.808;12.482;2023-05-02T07:10:01;12.10;99.90
34646;DHT22;20857;47.808;12.482;2023-05-02T07:12:27;12.10;99.90
34646;DHT22;20857;47.808;12.482;2023-05-02T07:14:53;12.20;99.90
34646;DHT22;20857;47.808;12.482;2023-05-02T07:17:18;12.20;99.90
34646;DHT22;20857;47.808;12.482;2023-05-02T07:19:44;12.20;99.90
34646;DHT22;20857;47.808;12.482;2023-05-02T07:22:09;12.40;99.90
34646;DHT22;20857;47.808;12.482;2023-05-02T07:24:38;12.50;99.90
34646;DHT22;20857;47.808;12.482;2023-05-02T07:27:04;12.50;99.90
34646;DHT22;20857;47.808;12.482;2023-05-02T07:29:30;12.60;99.90
34646;DHT22;20857;47.808;12.482;2023-05-02T07:31:55;12.80;99.90
34646;DHT22;20857;47.808;12.482;2023-05-02T07:34:21;12.90;99.90
34646;DHT22;20857;47.808;12.482;2023-05-02T07:36:46;12.90;99.90
34646;DHT22;20857;47.808;12.482;2023-05-02T07:39:12;13.00;99.90
34646;DHT22;20857;47.808;12.482;2023-05-02T07:41:37;13.20;99.90
34646;DHT22;20857;47.808;12.482;2023-05-02T07:44:02;13.30;99.90
34646;DHT22;20857;47.808;12.482;2023-05-02T07:46:28;13.50;99.90
34646;DHT22;20857;47.808;12.482;2023-05-02T07:48:53;13.80;99.90
34646;DHT22;20857;47.808;12.482;2023-05-02T07:51:20;14.00;99.90
34646;DHT22;20857;47.808;12.482;2023-05-02T07:53:46;14.00;99.90
34646;DHT22;20857;47.808;12.482;2023-05-02T07:56:11;14.10;99.90
34646;DHT22;20857;47.808;12.482;2023-05-02T07:58:37;14.20;99.90
34646;DHT22;20857;47.808;12.482;2023-05-02T08:01:02;14.10;99.90
34646;DHT22;20857;47.808;12.482;2023-05-02T08:03:29;14.10;99.90
34646;DHT22;20857;47.808;12.482;2023-05-02T08:05:54;14.00;99.90
34646;DHT22;20857;47.808;12.482;2023-05-02T08:08:20;13.80;99.90
34646;DHT22;20857;47.808;12.482;2023-05-02T08:10:45;13.80;99.90
34646;DHT22;20857;47.808;12.482;2023-05-02T08:13:11;13.70;99.90
34646;DHT22;20857;47.808;12.482;2023-05-02T08:15:36;14.00;99.90
34646;DHT22;20857;47.808;12.482;2023-05-02T08:18:02;14.20;99.90
34646;DHT22;20857;47.808;12.482;2023-05-02T08:20:27;14.30;99.90
34646;DHT22;20857;47.808;12.482;2023-05-02T08:22:53;14.20;99.90
34646;DHT22;20857;47.808;12.482;2023-05-02T08:25:18;14.40;99.90
34646;DHT22;20857;47.808;12.482;2023-05-02T08:27:44;14.40;99.90
34646;DHT22;20857;47.808;12.482;2023-05-02T08:30:09;14.50;99.90
34646;DHT22;20857;47.808;12.482;2023-05-02T08:32:35;15.10;99.90
34646;DHT22;20857;47.808;12.482;2023-05-02T08:35:01;15.10;99.90
34646;DHT22;20857;47.808;12.482;2023-05-02T08:37:27;14.80;99.90
34646;DHT22;20857;47.808;12.482;2023-05-02T08:39:52;14.50;99.90
34646;DHT22;20857;47.808;12.482;2023-05-02T08:42:18;14.40;99.90
34646;DHT22;20857;47.808;12.482;2023-05-02T08:44:45;14.60;99.90
34646;DHT22;20857;47.808;12.482;2023-05-02T08:47:12;14.70;99.90
34646;DHT22;20857;47.808;12.482;2023-05-02T08:49:38;15.10;99.90
34646;DHT22;20857;47.808;12.482;2023-05-02T08:52:04;15.50;99.90
34646;DHT22;20857;47.808;12.482;2023-05-02T08:54:31;15.60;99.90
34646;DHT22;20857;47.808;12.482;2023-05-02T08:56:56;15.70;99.90
34646;DHT22;20857;47.808;12.482;2023-05-02T08:59:24;16.00;99.90
34646;DHT22;20857;47.808;12.482;2023-05-02T09:01:51;16.20;99.90
34646;DHT22;20857;47.808;12.482;2023-05-02T09:04:22;16.50;99.90
34646;DHT22;20857;47.808;12.482;2023-05-02T09:06:48;16.70;99.90
34646;DHT22;20857;47.808;12.482;2023-05-02T09:09:14;16.70;99.90
34646;DHT22;20857;47.808;12.482;2023-05-02T09:11:39;16.80;99.90
34646;DHT22;20857;47.808;12.482;2023-05-02T09:14:14;16.80;99.90
34646;DHT22;20857;47.808;12.482;2023-05-02T09:16:40;17.00;99.90
34646;DHT22;20857;47.808;12.482;2023-05-02T09:19:06;17.10;99.90
34646;DHT22;20857;47.808;12.482;2023-05-02T09:21:35;17.10;99.90
34646;DHT22;20857;47.808;12.482;2023-05-02T09:24:14;17.10;99.90
34646;DHT22;20857;47.808;12.482;2023-05-02T09:26:41;17.00;99.90
34646;DHT22;20857;47.808;12.482;2023-05-02T09:29:06;17.10;99.90
34646;DHT22;20857;47.808;12.482;2023-05-02T09:31:32;16.70;99.90
34646;DHT22;20857;47.808;12.482;2023-05-02T09:34:11;16.50;99.90
34646;DHT22;20857;47.808;12.482;2023-05-02T09:36:41;16.20;99.90
34646;DHT22;20857;47.808;12.482;2023-05-02T09:39:08;16.10;99.90
34646;DHT22;20857;47.808;12.482;2023-05-02T09:41:41;15.50;99.90
34646;DHT22;20857;47.808;12.482;2023-05-02T09:44:10;15.50;99.90
34646;DHT22;20857;47.808;12.482;2023-05-02T09:46:43;15.20;99.90
34646;DHT22;20857;47.808;12.482;2023-05-02T09:49:09;14.80;99.90
34646;DHT22;20857;47.808;12.482;2023-05-02T09:51:35;14.70;99.90
34646;DHT22;20857;47.808;12.482;2023-05-02T09:54:00;14.50;99.90
34646;DHT22;20857;47.808;12.482;2023-05-02T09:56:26;14.50;99.90
34646;DHT22;20857;47.808;12.482;2023-05-02T09:59:03;14.40;99.90
34646;DHT22;20857;47.808;12.482;2023-05-02T10:01:35;14.40;99.90
34646;DHT22;20857;47.808;12.482;2023-05-02T10:04:01;14.30;99.90
34646;DHT22;20857;47.808;12.482;2023-05-02T10:06:27;14.30;99.90
34646;DHT22;20857;47.808;12.482;2023-05-02T10:08:53;14.20;99.90
34646;DHT22;20857;47.808;12.482;2023-05-02T10:11:18;13.90;99.90
34646;DHT22;20857;47.808;12.482;2023-05-02T10:13:44;14.20;99.90
34646;DHT22;20857;47.808;12.482;2023-05-02T10:16:10;14.50;99.90
34646;DHT22;20857;47.808;12.482;2023-05-02T10:18:46;14.40;99.90
34646;DHT22;20857;47.808;12.482;2023-05-02T10:21:15;14.40;99.90
34646;DHT22;20857;47.808;12.482;2023-05-02T10:23:41;14.40;99.90
34646;DHT22;20857;47.808;12.482;2023-05-02T10:26:14;14.70;99.90
34646;DHT22;20857;47.808;12.482;2023-05-02T10:28:40;14.40;99.90
34646;DHT22;20857;47.808;12.482;2023-05-02T10:31:05;14.50;99.90
34646;DHT22;20857;47.808;12.482;2023-05-02T10:33:34;14.60;99.90
34646;DHT22;20857;47.808;12.482;2023-05-02T10:35:59;14.20;99.90
34646;DHT22;20857;47.808;12.482;2023-05-02T10:38:25;14.40;99.90
34646;DHT22;20857;47.808;12.482;2023-05-02T10:43:47;14.60;99.90
34646;DHT22;20857;47.808;12.482;2023-05-02T10:46:32;14.50;99.90
34646;DHT22;20857;47.808;12.482;2023-05-02T10:49:04;14.50;99.90
34646;DHT22;20857;47.808;12.482;2023-05-02T10:51:31;14.30;99.90
34646;DHT22;20857;47.808;12.482;2023-05-02T10:59:42;13.90;99.90
34646;DHT22;20857;47.808;12.482;2023-05-02T11:04:57;13.90;99.90
34646;DHT22;20857;47.808;12.482;2023-05-02T11:07:23;13.90;99.90
34646;DHT22;20857;47.808;12.482;2023-05-02T11:09:49;13.70;99.90
34646;DHT22;20857;47.808;12.482;2023-05-02T11:12:41;13.50;99.90
34646;DHT22;20857;47.808;12.482;2023-05-02T11:15:00;13.60;99.90
34646;DHT22;20857;47.808;12.482;2023-05-02T11:17:25;13.90;99.90
34646;DHT22;20857;47.808;12.482;2023-05-02T11:24:46;14.10;99.90
34646;DHT22;20857;47.808;12.482;2023-05-02T11:29:57;14.60;99.90
34646;DHT22;20857;47.808;12.482;2023-05-02T11:32:22;14.90;99.90
34646;DHT22;20857;47.808;12.482;2023-05-02T11:34:49;15.40;99.90
34646;DHT22;20857;47.808;12.482;2023-05-02T11:37:17;15.20;99.90
34646;DHT22;20857;47.808;12.482;2023-05-02T11:39:43;15.50;99.90
34646;DHT22;20857;47.808;12.482;2023-05-02T11:42:29;15.50;99.90
34646;DHT22;20857;47.808;12.482;2023-05-02T11:44:59;15.60;99.90
34646;DHT22;20857;47.808;12.482;2023-05-02T11:47:25;15.90;99.90
34646;DHT22;20857;47.808;12.482;2023-05-02T11:49:54;15.90;99.90
34646;DHT22;20857;47.808;12.482;2023-05-02T11:52:21;15.80;99.90
34646;DHT22;20857;47.808;12.482;2023-05-02T11:54:47;16.00;99.90
34646;DHT22;20857;47.808;12.482;2023-05-02T11:57:13;16.00;99.90
34646;DHT22;20857;47.808;12.482;2023-05-02T11:59:52;16.20;99.90
34646;DHT22;20857;47.808;12.482;2023-05-02T12:02:18;16.40;99.90
34646;DHT22;20857;47.808;12.482;2023-05-02T12:04:43;16.50;99.90
34646;DHT22;20857;47.808;12.482;2023-05-02T12:07:09;16.60;99.90
34646;DHT22;20857;47.808;12.482;2023-05-02T12:09:34;16.80;99.90
34646;DHT22;20857;47.808;12.482;2023-05-02T12:12:00;16.90;99.90
34646;DHT22;20857;47.808;12.482;2023-05-02T12:14:28;17.10;99.90
34646;DHT22;20857;47.808;12.482;2023-05-02T12:16:54;17.10;99.90
34646;DHT22;20857;47.808;12.482;2023-05-02T12:19:19;17.20;99.90
34646;DHT22;20857;47.808;12.482;2023-05-02T12:21:48;17.30;99.90
34646;DHT22;20857;47.808;12.482;2023-05-02T12:24:14;17.50;99.90
34646;DHT22;20857;47.808;12.482;2023-05-02T12:26:40;17.50;99.90
34646;DHT22;20857;47.808;12.482;2023-05-02T12:29:05;17.50;99.90
34646;DHT22;20857;47.808;12.482;2023-05-02T12:31:32;17.70;99.90
34646;DHT22;20857;47.808;12.482;2023-05-02T12:33:58;17.80;99.90
34646;DHT22;20857;47.808;12.482;2023-05-02T12:36:24;18.00;99.90
34646;DHT22;20857;47.808;12.482;2023-05-02T12:39:01;18.10;99.90
34646;DHT22;20857;47.808;12.482;2023-05-02T12:41:29;18.40;99.90
34646;DHT22;20857;47.808;12.482;2023-05-02T12:43:55;18.30;99.90
34646;DHT22;20857;47.808;12.482;2023-05-02T12:46:22;18.40;99.90
34646;DHT22;20857;47.808;12.482;2023-05-02T12:48:59;18.20;99.90
34646;DHT22;20857;47.808;12.482;2023-05-02T12:51:25;18.20;99.90
34646;DHT22;20857;47.808;12.482;2023-05-02T12:53:53;18.00;99.90
34646;DHT22;20857;47.808;12.482;2023-05-02T12:56:18;18.10;99.90
34646;DHT22;20857;47.808;12.482;2023-05-02T12:58:45;18.00;99.90
34646;DHT22;20857;47.808;12.482;2023-05-02T13:01:11;18.10;99.90
34646;DHT22;20857;47.808;12.482;2023-05-02T13:03:38;18.10;99.90
34646;DHT22;20857;47.808;12.482;2023-05-02T13:06:04;17.90;99.90
34646;DHT22;20857;47.808;12.482;2023-05-02T13:08:33;17.80;99.90
34646;DHT22;20857;47.808;12.482;2023-05-02T13:11:02;17.80;99.90
34646;DHT22;20857;47.808;12.482;2023-05-02T13:13:28;17.70;99.90
34646;DHT22;20857;47.808;12.482;2023-05-02T13:15:54;17.80;99.90
34646;DHT22;20857;47.808;12.482;2023-05-02T13:18:19;17.80;99.90
34646;DHT22;20857;47.808;12.482;2023-05-02T13:20:45;17.60;99.90
34646;DHT22;20857;47.808;12.482;2023-05-02T13:23:11;17.60;99.90
34646;DHT22;20857;47.808;12.482;2023-05-02T13:25:37;17.50;99.90
34646;DHT22;20857;47.808;12.482;2023-05-02T13:28:02;17.50;99.90
34646;DHT22;20857;47.808;12.482;2023-05-02T13:30:28;17.50;99.90
34646;DHT22;20857;47.808;12.482;2023-05-02T13:32:53;17.40;99.90
34646;DHT22;20857;47.808;12.482;2023-05-02T13:35:19;17.40;99.90
34646;DHT22;20857;47.808;12.482;2023-05-02T13:37:44;17.20;99.90
34646;DHT22;20857;47.808;12.482;2023-05-02T13:40:10;17.10;99.90
34646;DHT22;20857;47.808;12.482;2023-05-02T13:42:36;17.10;99.90
34646;DHT22;20857;47.808;12.482;2023-05-02T13:45:01;17.10;99.90
34646;DHT22;20857;47.808;12.482;2023-05-02T13:47:29;17.00;99.90
34646;DHT22;20857;47.808;12.482;2023-05-02T13:49:54;16.90;99.90
34646;DHT22;20857;47.808;12.482;2023-05-02T13:52:20;16.80;99.90
34646;DHT22;20857;47.808;12.482;2023-05-02T13:54:45;16.60;99.90
34646;DHT22;20857;47.808;12.482;2023-05-02T13:57:11;16.60;99.90
34646;DHT22;20857;47.808;12.482;2023-05-02T13:59:36;16.50;99.90
34646;DHT22;20857;47.808;12.482;2023-05-02T14:02:02;16.60;99.90
34646;DHT22;20857;47.808;12.482;2023-05-02T14:04:27;16.30;99.90
34646;DHT22;20857;47.808;12.482;2023-05-02T14:06:53;16.10;99.90
34646;DHT22;20857;47.808;12.482;2023-05-02T14:09:18;15.90;99.90
34646;DHT22;20857;47.808;12.482;2023-05-02T14:11:45;15.60;99.90
34646;DHT22;20857;47.808;12.482;2023-05-02T14:14:11;14.80;99.90
34646;DHT22;20857;47.808;12.482;2023-05-02T14:16:37;13.60;99.90
34646;DHT22;20857;47.808;12.482;2023-05-02T14:19:03;13.50;99.90
34646;DHT22;20857;47.808;12.482;2023-05-02T14:21:28;12.80;99.90
34646;DHT22;20857;47.808;12.482;2023-05-02T14:23:54;12.00;99.90
34646;DHT22;20857;47.808;12.482;2023-05-02T14:26:20;12.00;99.90
34646;DHT22;20857;47.808;12.482;2023-05-02T14:28:45;11.80;99.90
34646;DHT22;20857;47.808;12.482;2023-05-02T14:31:11;11.60;99.90
34646;DHT22;20857;47.808;12.482;2023-05-02T14:33:37;11.50;99.90
34646;DHT22;20857;47.808;12.482;2023-05-02T14:36:02;11.50;99.90
34646;DHT22;20857;47.808;12.482;2023-05-02T14:38:28;11.50;99.90
34646;DHT22;20857;47.808;12.482;2023-05-02T14:40:53;11.60;99.90
34646;DHT22;20857;47.808;12.482;2023-05-02T14:43:19;11.70;99.90
34646;DHT22;20857;47.808;12.482;2023-05-02T14:45:44;11.80;99.90
34646;DHT22;20857;47.808;12.482;2023-05-02T14:48:10;11.90;99.90
34646;DHT22;20857;47.808;12.482;2023-05-02T14:50:38;11.90;99.90
34646;DHT22;20857;47.808;12.482;2023-05-02T14:53:04;11.90;99.90
34646;DHT22;20857;47.808;12.482;2023-05-02T14:55:34;12.50;99.90
34646;DHT22;20857;47.808;12.482;2023-05-02T14:57:59;12.50;99.90
34646;DHT22;20857;47.808;12.482;2023-05-02T15:00:25;12.50;99.90
34646;DHT22;20857;47.808;12.482;2023-05-02T15:02:50;12.50;99.90
34646;DHT22;20857;47.808;12.482;2023-05-02T15:05:16;12.90;99.90
34646;DHT22;20857;47.808;12.482;2023-05-02T15:07:41;12.90;99.90
34646;DHT22;20857;47.808;12.482;2023-05-02T15:10:07;13.10;99.90
34646;DHT22;20857;47.808;12.482;2023-05-02T15:12:33;13.10;99.90
34646;DHT22;20857;47.808;12.482;2023-05-02T15:14:58;13.20;99.90
34646;DHT22;20857;47.808;12.482;2023-05-02T15:17:24;13.40;99.90
34646;DHT22;20857;47.808;12.482;2023-05-02T15:19:50;13.50;99.90
34646;DHT22;20857;47.808;12.482;2023-05-02T15:22:15;13.30;99.90
34646;DHT22;20857;47.808;12.482;2023-05-02T15:24:42;13.20;99.90
34646;DHT22;20857;47.808;12.482;2023-05-02T15:27:08;12.90;99.90
34646;DHT22;20857;47.808;12.482;2023-05-02T15:29:34;12.90;99.90
34646;DHT22;20857;47.808;12.482;2023-05-02T15:31:59;12.90;99.90
34646;DHT22;20857;47.808;12.482;2023-05-02T15:34:25;13.00;99.90
34646;DHT22;20857;47.808;12.482;2023-05-02T15:36:51;13.10;99.90
34646;DHT22;20857;47.808;12.482;2023-05-02T15:39:16;13.10;99.90
34646;DHT22;20857;47.808;12.482;2023-05-02T15:41:43;13.00;99.90
34646;DHT22;20857;47.808;12.482;2023-05-02T15:44:12;12.90;99.90
34646;DHT22;20857;47.808;12.482;2023-05-02T15:46:37;12.90;99.90
34646;DHT22;20857;47.808;12.482;2023-05-02T15:49:04;12.80;99.90
34646;DHT22;20857;47.808;12.482;2023-05-02T15:51:29;12.60;99.90
34646;DHT22;20857;47.808;12.482;2023-05-02T15:53:57;12.70;99.90
34646;DHT22;20857;47.808;12.482;2023-05-02T15:56:23;12.70;99.90
34646;DHT22;20857;47.808;12.482;2023-05-02T15:58:48;12.70;99.90
34646;DHT22;20857;47.808;12.482;2023-05-02T16:01:14;12.70;99.90